sensor_id;sensor_type;location;lat;lon;timestamp;P1;durP1;ratioP1;P2;durP2;ratioP2
69047;SDS011;56119;50.118;8.642;2023-03-02T00:00:06;22.30;;;13.60;;
69047;SDS011;56119;50.118;8.642;2023-03-02T00:02:40;19.87;;;12.83;;
69047;SDS011;56119;50.118;8.642;2023-03-02T00:05:06;25.07;;;14.03;;
69047;SDS011;56119;50.118;8.642;2023-03-02T00:07:33;23.67;;;13.53;;
69047;SDS011;56119;50.118;8.642;2023-03-02T00:09:59;25.53;;;13.93;;
69047;SDS011;56119;50.118;8.642;2023-03-02T00:12:26;24.80;;;13.77;;
69047;SDS011;56119;50.118;8.642;2023-03-02T00:14:53;21.73;;;13.37;;
69047;SDS011;56119;50.118;8.642;2023-03-02T00:17:19;22.20;;;12.40;;
69047;SDS011;56119;50.118;8.642;2023-03-02T00:19:51;23.73;;;13.57;;
69047;SDS011;56119;50.118;8.642;2023-03-02T00:22:17;23.97;;;13.40;;
69047;SDS011;56119;50.118;8.642;2023-03-02T00:24:43;23.10;;;13.93;;
69047;SDS011;56119;50.118;8.642;2023-03-02T00:27:09;23.43;;;13.13;;
69047;SDS011;56119;50.118;8.642;2023-03-02T00:29:35;26.90;;;13.30;;
69047;SDS011;56119;50.118;8.642;2023-03-02T00:32:01;22.07;;;13.73;;
69047;SDS011;56119;50.118;8.642;2023-03-02T00:34:28;25.43;;;14.23;;
69047;SDS011;56119;50.118;8.642;2023-03-02T00:36:56;22.83;;;13.97;;
69047;SDS011;56119;50.118;8.642;2023-03-02T00:39:22;21.87;;;13.43;;
69047;SDS011;56119;50.118;8.642;2023-03-02T00:41:48;25.77;;;13.83;;
69047;SDS011;56119;50.118;8.642;2023-03-02T00:44:14;23.40;;;14.20;;
69047;SDS011;56119;50.118;8.642;2023-03-02T00:46:44;25.90;;;13.87;;
69047;SDS011;56119;50.118;8.642;2023-03-02T00:49:10;24.73;;;13.80;;
69047;SDS011;56119;50.118;8.642;2023-03-02T00:51:36;23.73;;;13.60;;
69047;SDS011;56119;50.118;8.642;2023-03-02T00:54:02;24.80;;;14.27;;
69047;SDS011;56119;50.118;8.642;2023-03-02T00:56:29;23.40;;;14.23;;
69047;SDS011;56119;50.118;8.642;2023-03-02T00:58:55;22.03;;;14.03;;
69047;SDS011;56119;50.118;8.642;2023-03-02T01:01:21;24.93;;;14.50;;
69047;SDS011;56119;50.118;8.642;2023-03-02T01:03:47;23.30;;;14.40;;
69047;SDS011;56119;50.118;8.642;2023-03-02T01:06:14;24.83;;;14.07;;
69047;SDS011;56119;50.118;8.642;2023-03-02T01:08:40;24.43;;;14.20;;
69047;SDS011;56119;50.118;8.642;2023-03-02T01:11:13;26.67;;;13.77;;
69047;SDS011;56119;50.118;8.642;2023-03-02T01:13:39;23.23;;;13.97;;
69047;SDS011;56119;50.118;8.642;2023-03-02T01:16:05;23.37;;;13.80;;
69047;SDS011;56119;50.118;8.642;2023-03-02T01:18:32;25.67;;;12.93;;
69047;SDS011;56119;50.118;8.642;2023-03-02T01:20:59;23.67;;;13.73;;
69047;SDS011;56119;50.118;8.642;2023-03-02T01:23:26;26.00;;;15.10;;
69047;SDS011;56119;50.118;8.642;2023-03-02T01:25:52;22.77;;;14.07;;
69047;SDS011;56119;50.118;8.642;2023-03-02T01:28:18;22.30;;;13.30;;
69047;SDS011;56119;50.118;8.642;2023-03-02T01:30:44;22.67;;;13.97;;
69047;SDS011;56119;50.118;8.642;2023-03-02T01:33:11;24.50;;;13.70;;
69047;SDS011;56119;50.118;8.642;2023-03-02T01:35:37;25.33;;;13.83;;
69047;SDS011;56119;50.118;8.642;2023-03-02T01:38:03;26.00;;;14.33;;
69047;SDS011;56119;50.118;8.642;2023-03-02T01:40:29;22.27;;;12.83;;
69047;SDS011;56119;50.118;8.642;2023-03-02T01:42:56;24.33;;;14.27;;
69047;SDS011;56119;50.118;8.642;2023-03-02T01:48:30;25.30;;;13.63;;
69047;SDS011;56119;50.118;8.642;2023-03-02T01:50:58;22.87;;;13.57;;
69047;SDS011;56119;50.118;8.642;2023-03-02T01:53:26;26.53;;;14.23;;
69047;SDS011;56119;50.118;8.642;2023-03-02T01:55:53;22.10;;;13.20;;
69047;SDS011;56119;50.118;8.642;2023-03-02T01:58:19;23.57;;;14.37;;
69047;SDS011;56119;50.118;8.642;2023-03-02T02:00:45;22.07;;;13.40;;
69047;SDS011;56119;50.118;8.642;2023-03-02T02:03:30;25.80;;;14.30;;
69047;SDS011;56119;50.118;8.642;2023-03-02T02:06:02;22.77;;;12.43;;
69047;SDS011;56119;50.118;8.642;2023-03-02T02:08:29;22.87;;;14.07;;
69047;SDS011;56119;50.118;8.642;2023-03-02T02:10:55;25.27;;;13.70;;
69047;SDS011;56119;50.118;8.642;2023-03-02T02:13:21;24.20;;;14.47;;
69047;SDS011;56119;50.118;8.642;2023-03-02T02:15:47;24.30;;;13.93;;
69047;SDS011;56119;50.118;8.642;2023-03-02T02:18:13;24.20;;;13.57;;
69047;SDS011;56119;50.118;8.642;2023-03-02T02:20:40;23.63;;;13.67;;
69047;SDS011;56119;50.118;8.642;2023-03-02T02:23:26;21.33;;;12.97;;
69047;SDS011;56119;50.118;8.642;2023-03-02T02:30:49;23.07;;;14.17;;
69047;SDS011;56119;50.118;8.642;2023-03-02T02:33:18;22.80;;;13.17;;
69047;SDS011;56119;50.118;8.642;2023-03-02T02:35:46;23.97;;;13.37;;
69047;SDS011;56119;50.118;8.642;2023-03-02T02:38:13;22.07;;;13.20;;
69047;SDS011;56119;50.118;8.642;2023-03-02T02:40:45;25.40;;;13.73;;
69047;SDS011;56119;50.118;8.642;2023-03-02T02:43:12;24.43;;;13.77;;
69047;SDS011;56119;50.118;8.642;2023-03-02T02:45:39;22.67;;;12.93;;
69047;SDS011;56119;50.118;8.642;2023-03-02T02:48:07;27.03;;;13.93;;
69047;SDS011;56119;50.118;8.642;2023-03-02T02:50:36;27.07;;;13.80;;
69047;SDS011;56119;50.118;8.642;2023-03-02T02:53:09;24.03;;;13.97;;
69047;SDS011;56119;50.118;8.642;2023-03-02T02:55:35;23.73;;;12.93;;
69047;SDS011;56119;50.118;8.642;2023-03-02T02:58:02;23.13;;;13.73;;
69047;SDS011;56119;50.118;8.642;2023-03-02T03:00:33;23.00;;;13.00;;
69047;SDS011;56119;50.118;8.642;2023-03-02T03:03:02;22.83;;;13.80;;
69047;SDS011;56119;50.118;8.642;2023-03-02T03:05:29;21.43;;;12.67;;
69047;SDS011;56119;50.118;8.642;2023-03-02T03:08:06;21.83;;;13.10;;
69047;SDS011;56119;50.118;8.642;2023-03-02T03:10:32;22.43;;;12.30;;
69047;SDS011;56119;50.118;8.642;2023-03-02T03:13:04;23.33;;;12.73;;
69047;SDS011;56119;50.118;8.642;2023-03-02T03:15:30;20.87;;;12.87;;
69047;SDS011;56119;50.118;8.642;2023-03-02T03:17:57;20.17;;;11.77;;
69047;SDS011;56119;50.118;8.642;2023-03-02T03:20:24;21.00;;;12.23;;
69047;SDS011;56119;50.118;8.642;2023-03-02T03:22:50;22.17;;;12.90;;
69047;SDS011;56119;50.118;8.642;2023-03-02T03:25:19;24.87;;;13.17;;
69047;SDS011;56119;50.118;8.642;2023-03-02T03:27:45;21.27;;;12.80;;
69047;SDS011;56119;50.118;8.642;2023-03-02T03:30:12;22.50;;;12.70;;
69047;SDS011;56119;50.118;8.642;2023-03-02T03:32:39;21.13;;;12.50;;
69047;SDS011;56119;50.118;8.642;2023-03-02T03:35:05;21.47;;;12.63;;
69047;SDS011;56119;50.118;8.642;2023-03-02T03:37:35;23.80;;;13.20;;
69047;SDS011;56119;50.118;8.642;2023-03-02T03:40:01;20.03;;;12.50;;
69047;SDS011;56119;50.118;8.642;2023-03-02T03:42:27;22.23;;;13.33;;
69047;SDS011;56119;50.118;8.642;2023-03-02T03:44:53;18.27;;;11.40;;
69047;SDS011;56119;50.118;8.642;2023-03-02T03:47:19;22.33;;;13.00;;
69047;SDS011;56119;50.118;8.642;2023-03-02T03:49:45;23.23;;;12.20;;
69047;SDS011;56119;50.118;8.642;2023-03-02T03:52:11;20.50;;;12.10;;
69047;SDS011;56119;50.118;8.642;2023-03-02T03:54:37;18.63;;;12.40;;
69047;SDS011;56119;50.118;8.642;2023-03-02T03:57:03;21.13;;;11.43;;
69047;SDS011;56119;50.118;8.642;2023-03-02T03:59:29;21.10;;;11.97;;
69047;SDS011;56119;50.118;8.642;2023-03-02T04:01:56;20.53;;;12.90;;
69047;SDS011;56119;50.118;8.642;2023-03-02T04:04:24;21.80;;;11.70;;
69047;SDS011;56119;50.118;8.642;2023-03-02T04:06:50;23.17;;;12.63;;
69047;SDS011;56119;50.118;8.642;2023-03-02T04:09:17;18.50;;;10.97;;
69047;SDS011;56119;50.118;8.642;2023-03-02T04:11:44;23.80;;;12.93;;
69047;SDS011;56119;50.118;8.642;2023-03-02T04:14:10;23.77;;;12.13;;
69047;SDS011;56119;50.118;8.642;2023-03-02T04:16:36;22.70;;;12.20;;
69047;SDS011;56119;50.118;8.642;2023-03-02T04:19:03;19.47;;;12.00;;
69047;SDS011;56119;50.118;8.642;2023-03-02T04:21:33;19.60;;;11.83;;
69047;SDS011;56119;50.118;8.642;2023-03-02T04:23:59;22.60;;;12.40;;
69047;SDS011;56119;50.118;8.642;2023-03-02T04:26:25;23.57;;;13.10;;
69047;SDS011;56119;50.118;8.642;2023-03-02T04:28:51;22.03;;;12.57;;
69047;SDS011;56119;50.118;8.642;2023-03-02T04:31:17;21.30;;;12.63;;
69047;SDS011;56119;50.118;8.642;2023-03-02T04:33:43;20.73;;;12.30;;
69047;SDS011;56119;50.118;8.642;2023-03-02T04:36:09;20.57;;;11.50;;
69047;SDS011;56119;50.118;8.642;2023-03-02T04:38:36;22.63;;;12.00;;
69047;SDS011;56119;50.118;8.642;2023-03-02T04:41:02;20.50;;;12.07;;
69047;SDS011;56119;50.118;8.642;2023-03-02T04:43:28;21.20;;;12.20;;
69047;SDS011;56119;50.118;8.642;2023-03-02T04:45:54;22.07;;;12.73;;
69047;SDS011;56119;50.118;8.642;2023-03-02T04:48:20;22.13;;;12.30;;
69047;SDS011;56119;50.118;8.642;2023-03-02T04:50:46;24.23;;;12.30;;
69047;SDS011;56119;50.118;8.642;2023-03-02T04:53:12;22.07;;;11.70;;
69047;SDS011;56119;50.118;8.642;2023-03-02T04:55:39;20.87;;;11.77;;
69047;SDS011;56119;50.118;8.642;2023-03-02T04:58:05;22.57;;;12.03;;
69047;SDS011;56119;50.118;8.642;2023-03-02T05:00:32;18.50;;;10.93;;
69047;SDS011;56119;50.118;8.642;2023-03-02T05:02:59;22.57;;;12.87;;
69047;SDS011;56119;50.118;8.642;2023-03-02T05:05:26;21.33;;;11.20;;
69047;SDS011;56119;50.118;8.642;2023-03-02T05:07:52;20.23;;;11.50;;
69047;SDS011;56119;50.118;8.642;2023-03-02T05:10:19;21.70;;;11.17;;
69047;SDS011;56119;50.118;8.642;2023-03-02T05:12:45;17.77;;;10.77;;
69047;SDS011;56119;50.118;8.642;2023-03-02T05:17:58;21.57;;;12.27;;
69047;SDS011;56119;50.118;8.642;2023-03-02T05:20:24;17.93;;;10.80;;
69047;SDS011;56119;50.118;8.642;2023-03-02T05:22:55;20.80;;;11.77;;
69047;SDS011;56119;50.118;8.642;2023-03-02T05:25:21;21.57;;;11.60;;
69047;SDS011;56119;50.118;8.642;2023-03-02T05:27:47;19.90;;;10.87;;
69047;SDS011;56119;50.118;8.642;2023-03-02T05:30:13;20.77;;;11.93;;
69047;SDS011;56119;50.118;8.642;2023-03-02T05:32:40;20.20;;;11.43;;
69047;SDS011;56119;50.118;8.642;2023-03-02T05:35:06;21.43;;;12.10;;
69047;SDS011;56119;50.118;8.642;2023-03-02T05:37:32;18.20;;;11.30;;
69047;SDS011;56119;50.118;8.642;2023-03-02T05:39:58;20.60;;;11.27;;
69047;SDS011;56119;50.118;8.642;2023-03-02T05:42:24;18.80;;;10.87;;
69047;SDS011;56119;50.118;8.642;2023-03-02T05:44:50;21.03;;;11.40;;
69047;SDS011;56119;50.118;8.642;2023-03-02T05:47:16;20.60;;;11.87;;
69047;SDS011;56119;50.118;8.642;2023-03-02T05:49:42;20.40;;;11.40;;
69047;SDS011;56119;50.118;8.642;2023-03-02T05:52:08;21.10;;;11.53;;
69047;SDS011;56119;50.118;8.642;2023-03-02T05:54:35;20.20;;;11.67;;
69047;SDS011;56119;50.118;8.642;2023-03-02T05:57:00;15.80;;;10.07;;
69047;SDS011;56119;50.118;8.642;2023-03-02T05:59:26;17.83;;;10.73;;
69047;SDS011;56119;50.118;8.642;2023-03-02T06:01:52;21.70;;;10.40;;
69047;SDS011;56119;50.118;8.642;2023-03-02T06:04:22;18.50;;;10.60;;
69047;SDS011;56119;50.118;8.642;2023-03-02T06:06:48;20.13;;;11.03;;
69047;SDS011;56119;50.118;8.642;2023-03-02T06:09:14;19.70;;;10.77;;
69047;SDS011;56119;50.118;8.642;2023-03-02T06:11:40;20.97;;;11.50;;
69047;SDS011;56119;50.118;8.642;2023-03-02T06:14:06;18.23;;;10.87;;
69047;SDS011;56119;50.118;8.642;2023-03-02T06:16:32;18.30;;;11.07;;
69047;SDS011;56119;50.118;8.642;2023-03-02T06:18:59;18.47;;;10.27;;
69047;SDS011;56119;50.118;8.642;2023-03-02T06:21:25;23.87;;;11.47;;
69047;SDS011;56119;50.118;8.642;2023-03-02T06:23:51;16.30;;;9.70;;
69047;SDS011;56119;50.118;8.642;2023-03-02T06:26:17;18.40;;;10.30;;
69047;SDS011;56119;50.118;8.642;2023-03-02T06:28:43;16.97;;;10.73;;
69047;SDS011;56119;50.118;8.642;2023-03-02T06:31:09;20.10;;;9.77;;
69047;SDS011;56119;50.118;8.642;2023-03-02T06:33:35;18.80;;;10.70;;
69047;SDS011;56119;50.118;8.642;2023-03-02T06:36:01;18.00;;;10.57;;
69047;SDS011;56119;50.118;8.642;2023-03-02T06:38:27;20.47;;;10.80;;
69047;SDS011;56119;50.118;8.642;2023-03-02T06:40:53;18.37;;;11.10;;
69047;SDS011;56119;50.118;8.642;2023-03-02T06:43:19;20.23;;;11.57;;
69047;SDS011;56119;50.118;8.642;2023-03-02T06:45:45;19.00;;;10.43;;
69047;SDS011;56119;50.118;8.642;2023-03-02T06:48:11;16.50;;;10.37;;
69047;SDS011;56119;50.118;8.642;2023-03-02T06:50:37;20.53;;;11.10;;
69047;SDS011;56119;50.118;8.642;2023-03-02T06:53:03;20.63;;;10.27;;
69047;SDS011;56119;50.118;8.642;2023-03-02T06:55:29;21.83;;;10.90;;
69047;SDS011;56119;50.118;8.642;2023-03-02T06:57:55;21.50;;;10.37;;
69047;SDS011;56119;50.118;8.642;2023-03-02T07:00:22;19.57;;;10.80;;
69047;SDS011;56119;50.118;8.642;2023-03-02T07:02:52;21.63;;;11.43;;
69047;SDS011;56119;50.118;8.642;2023-03-02T07:05:18;20.63;;;11.10;;
69047;SDS011;56119;50.118;8.642;2023-03-02T07:07:44;25.47;;;11.93;;
69047;SDS011;56119;50.118;8.642;2023-03-02T07:10:10;18.00;;;10.67;;
69047;SDS011;56119;50.118;8.642;2023-03-02T07:12:37;20.70;;;11.63;;
69047;SDS011;56119;50.118;8.642;2023-03-02T07:15:03;17.17;;;11.27;;
69047;SDS011;56119;50.118;8.642;2023-03-02T07:17:34;17.90;;;9.83;;
69047;SDS011;56119;50.118;8.642;2023-03-02T07:20:01;20.40;;;10.77;;
69047;SDS011;56119;50.118;8.642;2023-03-02T07:22:29;17.40;;;10.33;;
69047;SDS011;56119;50.118;8.642;2023-03-02T07:24:55;19.00;;;11.00;;
69047;SDS011;56119;50.118;8.642;2023-03-02T07:27:21;20.73;;;11.70;;
69047;SDS011;56119;50.118;8.642;2023-03-02T07:29:47;19.37;;;10.27;;
69047;SDS011;56119;50.118;8.642;2023-03-02T07:32:13;17.40;;;10.60;;
69047;SDS011;56119;50.118;8.642;2023-03-02T07:34:39;19.23;;;11.37;;
69047;SDS011;56119;50.118;8.642;2023-03-02T07:37:05;36.23;;;17.97;;
69047;SDS011;56119;50.118;8.642;2023-03-02T07:39:31;18.42;;;11.55;;
69047;SDS011;56119;50.118;8.642;2023-03-02T07:42:00;19.10;;;12.73;;
69047;SDS011;56119;50.118;8.642;2023-03-02T07:44:28;22.10;;;12.10;;
69047;SDS011;56119;50.118;8.642;2023-03-02T07:46:54;17.70;;;10.75;;
69047;SDS011;56119;50.118;8.642;2023-03-02T07:49:20;18.38;;;10.88;;
69047;SDS011;56119;50.118;8.642;2023-03-02T07:51:46;20.57;;;11.23;;
69047;SDS011;56119;50.118;8.642;2023-03-02T07:54:12;20.55;;;11.13;;
69047;SDS011;56119;50.118;8.642;2023-03-02T07:56:38;20.07;;;11.30;;
69047;SDS011;56119;50.118;8.642;2023-03-02T07:59:04;24.30;;;11.80;;
69047;SDS011;56119;50.118;8.642;2023-03-02T08:01:30;19.23;;;11.20;;
69047;SDS011;56119;50.118;8.642;2023-03-02T08:03:56;18.80;;;11.27;;
69047;SDS011;56119;50.118;8.642;2023-03-02T08:06:22;22.30;;;12.52;;
69047;SDS011;56119;50.118;8.642;2023-03-02T08:08:48;19.55;;;10.82;;
69047;SDS011;56119;50.118;8.642;2023-03-02T08:11:15;19.95;;;12.35;;
69047;SDS011;56119;50.118;8.642;2023-03-02T08:13:41;20.70;;;11.27;;
69047;SDS011;56119;50.118;8.642;2023-03-02T08:16:08;19.42;;;11.40;;
69047;SDS011;56119;50.118;8.642;2023-03-02T08:18:35;19.52;;;10.77;;
69047;SDS011;56119;50.118;8.642;2023-03-02T08:21:02;20.33;;;11.00;;
69047;SDS011;56119;50.118;8.642;2023-03-02T08:23:29;23.40;;;13.00;;
69047;SDS011;56119;50.118;8.642;2023-03-02T08:25:55;20.40;;;11.70;;
69047;SDS011;56119;50.118;8.642;2023-03-02T08:28:21;18.20;;;11.20;;
69047;SDS011;56119;50.118;8.642;2023-03-02T08:30:57;20.58;;;11.52;;
69047;SDS011;56119;50.118;8.642;2023-03-02T08:33:23;20.58;;;12.25;;
69047;SDS011;56119;50.118;8.642;2023-03-02T08:36:03;18.48;;;12.05;;
69047;SDS011;56119;50.118;8.642;2023-03-02T08:38:30;23.13;;;11.77;;
69047;SDS011;56119;50.118;8.642;2023-03-02T08:40:56;24.20;;;11.00;;
69047;SDS011;56119;50.118;8.642;2023-03-02T08:43:23;20.73;;;11.90;;
69047;SDS011;56119;50.118;8.642;2023-03-02T08:45:52;19.17;;;11.32;;
69047;SDS011;56119;50.118;8.642;2023-03-02T08:48:19;22.98;;;12.57;;
69047;SDS011;56119;50.118;8.642;2023-03-02T08:53:20;19.90;;;12.30;;
69047;SDS011;56119;50.118;8.642;2023-03-02T08:55:47;23.13;;;11.95;;
69047;SDS011;56119;50.118;8.642;2023-03-02T08:58:13;20.67;;;12.48;;
69047;SDS011;56119;50.118;8.642;2023-03-02T09:00:39;22.10;;;12.43;;
69047;SDS011;56119;50.118;8.642;2023-03-02T09:03:05;20.63;;;11.75;;
69047;SDS011;56119;50.118;8.642;2023-03-02T09:05:31;20.20;;;11.73;;
69047;SDS011;56119;50.118;8.642;2023-03-02T09:07:57;21.38;;;11.68;;
69047;SDS011;56119;50.118;8.642;2023-03-02T09:10:23;20.85;;;12.27;;
69047;SDS011;56119;50.118;8.642;2023-03-02T09:12:49;21.88;;;12.38;;
69047;SDS011;56119;50.118;8.642;2023-03-02T09:15:15;20.25;;;12.75;;
69047;SDS011;56119;50.118;8.642;2023-03-02T09:17:41;23.55;;;12.68;;
69047;SDS011;56119;50.118;8.642;2023-03-02T09:20:07;21.52;;;12.43;;
69047;SDS011;56119;50.118;8.642;2023-03-02T09:22:33;22.00;;;13.60;;
69047;SDS011;56119;50.118;8.642;2023-03-02T09:25:00;20.27;;;12.18;;
69047;SDS011;56119;50.118;8.642;2023-03-02T09:27:26;22.48;;;12.88;;
69047;SDS011;56119;50.118;8.642;2023-03-02T09:29:52;21.58;;;12.82;;
69047;SDS011;56119;50.118;8.642;2023-03-02T09:32:18;19.42;;;12.18;;
69047;SDS011;56119;50.118;8.642;2023-03-02T09:34:44;19.50;;;12.23;;
69047;SDS011;56119;50.118;8.642;2023-03-02T09:37:10;19.88;;;12.68;;
69047;SDS011;56119;50.118;8.642;2023-03-02T09:39:36;22.05;;;13.00;;
69047;SDS011;56119;50.118;8.642;2023-03-02T09:42:13;19.08;;;12.35;;
69047;SDS011;56119;50.118;8.642;2023-03-02T09:44:51;22.80;;;12.85;;
69047;SDS011;56119;50.118;8.642;2023-03-02T09:54:57;21.33;;;12.73;;
69047;SDS011;56119;50.118;8.642;2023-03-02T09:57:30;21.80;;;12.27;;
69047;SDS011;56119;50.118;8.642;2023-03-02T10:00:06;21.30;;;13.07;;
69047;SDS011;56119;50.118;8.642;2023-03-02T10:02:40;21.70;;;13.32;;
69047;SDS011;56119;50.118;8.642;2023-03-02T10:05:12;20.35;;;12.20;;
69047;SDS011;56119;50.118;8.642;2023-03-02T10:07:40;20.63;;;12.50;;
69047;SDS011;56119;50.118;8.642;2023-03-02T10:12:40;23.08;;;12.43;;
69047;SDS011;56119;50.118;8.642;2023-03-02T10:15:11;21.48;;;12.57;;
69047;SDS011;56119;50.118;8.642;2023-03-02T10:20:51;20.42;;;12.02;;
69047;SDS011;56119;50.118;8.642;2023-03-02T10:25:51;19.85;;;12.30;;
69047;SDS011;56119;50.118;8.642;2023-03-02T10:28:20;19.92;;;12.27;;
69047;SDS011;56119;50.118;8.642;2023-03-02T10:30:49;21.90;;;12.27;;
69047;SDS011;56119;50.118;8.642;2023-03-02T10:33:19;19.65;;;12.23;;
69047;SDS011;56119;50.118;8.642;2023-03-02T10:35:50;20.65;;;13.00;;
69047;SDS011;56119;50.118;8.642;2023-03-02T10:38:20;19.63;;;12.15;;
69047;SDS011;56119;50.118;8.642;2023-03-02T10:40:48;20.23;;;12.95;;
69047;SDS011;56119;50.118;8.642;2023-03-02T10:43:16;20.42;;;10.88;;
69047;SDS011;56119;50.118;8.642;2023-03-02T10:45:42;17.35;;;11.35;;
69047;SDS011;56119;50.118;8.642;2023-03-02T10:48:10;19.58;;;12.02;;
69047;SDS011;56119;50.118;8.642;2023-03-02T10:50:36;19.00;;;11.52;;
69047;SDS011;56119;50.118;8.642;2023-03-02T10:53:05;16.98;;;11.30;;
69047;SDS011;56119;50.118;8.642;2023-03-02T10:55:31;18.67;;;11.52;;
69047;SDS011;56119;50.118;8.642;2023-03-02T11:00:25;18.45;;;11.93;;
69047;SDS011;56119;50.118;8.642;2023-03-02T11:02:58;20.38;;;11.48;;
69047;SDS011;56119;50.118;8.642;2023-03-02T11:10:22;19.70;;;12.07;;
69047;SDS011;56119;50.118;8.642;2023-03-02T11:12:49;17.98;;;11.50;;
69047;SDS011;56119;50.118;8.642;2023-03-02T11:15:18;18.08;;;11.45;;
69047;SDS011;56119;50.118;8.642;2023-03-02T11:17:50;17.88;;;11.63;;
69047;SDS011;56119;50.118;8.642;2023-03-02T11:20:25;21.85;;;11.90;;
69047;SDS011;56119;50.118;8.642;2023-03-02T11:25:33;18.80;;;11.60;;
69047;SDS011;56119;50.118;8.642;2023-03-02T11:28:11;17.98;;;10.85;;
69047;SDS011;56119;50.118;8.642;2023-03-02T11:30:44;19.02;;;11.48;;
69047;SDS011;56119;50.118;8.642;2023-03-02T11:33:14;21.02;;;12.25;;
69047;SDS011;56119;50.118;8.642;2023-03-02T11:35:43;22.98;;;11.73;;
69047;SDS011;56119;50.118;8.642;2023-03-02T11:38:31;16.70;;;11.15;;
69047;SDS011;56119;50.118;8.642;2023-03-02T11:43:25;17.30;;;10.80;;
69047;SDS011;56119;50.118;8.642;2023-03-02T11:45:56;17.70;;;11.32;;
69047;SDS011;56119;50.118;8.642;2023-03-02T11:48:24;17.15;;;10.90;;
69047;SDS011;56119;50.118;8.642;2023-03-02T11:50:54;16.27;;;11.05;;
69047;SDS011;56119;50.118;8.642;2023-03-02T11:53:21;14.88;;;10.25;;
69047;SDS011;56119;50.118;8.642;2023-03-02T11:55:48;20.85;;;12.75;;
69047;SDS011;56119;50.118;8.642;2023-03-02T11:58:16;18.70;;;11.35;;
69047;SDS011;56119;50.118;8.642;2023-03-02T12:00:42;18.08;;;10.70;;
69047;SDS011;56119;50.118;8.642;2023-03-02T12:05:45;16.77;;;10.82;;
69047;SDS011;56119;50.118;8.642;2023-03-02T12:13:30;21.02;;;10.85;;
69047;SDS011;56119;50.118;8.642;2023-03-02T12:15:56;17.08;;;10.60;;
69047;SDS011;56119;50.118;8.642;2023-03-02T12:21:02;17.45;;;10.73;;
69047;SDS011;56119;50.118;8.642;2023-03-02T12:23:29;16.45;;;10.50;;
69047;SDS011;56119;50.118;8.642;2023-03-02T12:26:04;19.42;;;11.73;;
69047;SDS011;56119;50.118;8.642;2023-03-02T12:28:39;18.60;;;11.02;;
69047;SDS011;56119;50.118;8.642;2023-03-02T12:31:07;16.92;;;11.18;;
69047;SDS011;56119;50.118;8.642;2023-03-02T12:33:52;17.80;;;10.25;;
69047;SDS011;56119;50.118;8.642;2023-03-02T12:36:25;16.70;;;9.80;;
69047;SDS011;56119;50.118;8.642;2023-03-02T12:38:56;17.25;;;10.50;;
69047;SDS011;56119;50.118;8.642;2023-03-02T12:46:28;18.40;;;11.05;;
69047;SDS011;56119;50.118;8.642;2023-03-02T12:51:42;16.75;;;10.50;;
69047;SDS011;56119;50.118;8.642;2023-03-02T12:54:13;15.02;;;9.80;;
69047;SDS011;56119;50.118;8.642;2023-03-02T12:56:40;17.52;;;10.77;;
69047;SDS011;56119;50.118;8.642;2023-03-02T12:59:06;18.35;;;11.07;;
69047;SDS011;56119;50.118;8.642;2023-03-02T13:01:32;24.08;;;10.55;;
69047;SDS011;56119;50.118;8.642;2023-03-02T13:03:58;17.73;;;10.85;;
69047;SDS011;56119;50.118;8.642;2023-03-02T13:06:25;14.63;;;9.35;;
69047;SDS011;56119;50.118;8.642;2023-03-02T13:08:53;15.98;;;9.75;;
69047;SDS011;56119;50.118;8.642;2023-03-02T13:11:41;16.20;;;9.77;;
69047;SDS011;56119;50.118;8.642;2023-03-02T13:16:52;15.75;;;9.55;;
69047;SDS011;56119;50.118;8.642;2023-03-02T13:19:18;14.48;;;9.85;;
69047;SDS011;56119;50.118;8.642;2023-03-02T13:21:44;16.00;;;9.35;;
69047;SDS011;56119;50.118;8.642;2023-03-02T13:26:56;15.63;;;9.52;;
69047;SDS011;56119;50.118;8.642;2023-03-02T13:29:26;13.88;;;10.05;;
69047;SDS011;56119;50.118;8.642;2023-03-02T13:31:54;15.75;;;9.65;;
69047;SDS011;56119;50.118;8.642;2023-03-02T13:34:21;14.98;;;10.25;;
69047;SDS011;56119;50.118;8.642;2023-03-02T13:36:48;16.85;;;9.48;;
69047;SDS011;56119;50.118;8.642;2023-03-02T13:39:18;14.25;;;9.90;;
69047;SDS011;56119;50.118;8.642;2023-03-02T13:41:52;14.48;;;9.32;;
69047;SDS011;56119;50.118;8.642;2023-03-02T13:44:19;16.55;;;9.48;;
69047;SDS011;56119;50.118;8.642;2023-03-02T13:46:47;15.02;;;10.30;;
69047;SDS011;56119;50.118;8.642;2023-03-02T13:49:13;13.50;;;9.18;;
69047;SDS011;56119;50.118;8.642;2023-03-02T13:51:55;17.70;;;10.30;;
69047;SDS011;56119;50.118;8.642;2023-03-02T13:54:24;14.93;;;9.73;;
69047;SDS011;56119;50.118;8.642;2023-03-02T13:56:51;16.20;;;9.75;;
69047;SDS011;56119;50.118;8.642;2023-03-02T13:59:19;14.07;;;9.50;;
69047;SDS011;56119;50.118;8.642;2023-03-02T14:01:46;15.38;;;9.57;;
69047;SDS011;56119;50.118;8.642;2023-03-02T14:04:13;14.55;;;9.95;;
69047;SDS011;56119;50.118;8.642;2023-03-02T14:06:40;15.55;;;8.57;;
69047;SDS011;56119;50.118;8.642;2023-03-02T14:09:06;13.55;;;9.10;;
69047;SDS011;56119;50.118;8.642;2023-03-02T14:11:36;14.65;;;10.50;;
69047;SDS011;56119;50.118;8.642;2023-03-02T14:14:03;17.27;;;10.05;;
69047;SDS011;56119;50.118;8.642;2023-03-02T14:16:30;16.45;;;10.75;;
69047;SDS011;56119;50.118;8.642;2023-03-02T14:18:58;15.63;;;10.18;;
69047;SDS011;56119;50.118;8.642;2023-03-02T14:21:24;14.10;;;8.65;;
69047;SDS011;56119;50.118;8.642;2023-03-02T14:23:51;14.63;;;10.07;;
69047;SDS011;56119;50.118;8.642;2023-03-02T14:26:20;17.63;;;10.27;;
69047;SDS011;56119;50.118;8.642;2023-03-02T14:28:48;18.35;;;10.40;;
69047;SDS011;56119;50.118;8.642;2023-03-02T14:31:14;17.10;;;10.45;;
69047;SDS011;56119;50.118;8.642;2023-03-02T14:33:40;16.63;;;9.70;;
69047;SDS011;56119;50.118;8.642;2023-03-02T14:36:06;14.48;;;9.45;;
69047;SDS011;56119;50.118;8.642;2023-03-02T14:38:33;17.27;;;11.02;;
69047;SDS011;56119;50.118;8.642;2023-03-02T14:40:59;14.73;;;10.25;;
69047;SDS011;56119;50.118;8.642;2023-03-02T14:43:25;19.17;;;9.88;;
69047;SDS011;56119;50.118;8.642;2023-03-02T14:45:51;18.55;;;10.70;;
69047;SDS011;56119;50.118;8.642;2023-03-02T14:48:17;18.33;;;10.82;;
69047;SDS011;56119;50.118;8.642;2023-03-02T14:50:44;18.70;;;11.40;;
69047;SDS011;56119;50.118;8.642;2023-03-02T14:53:15;16.17;;;10.77;;
69047;SDS011;56119;50.118;8.642;2023-03-02T14:55:42;17.20;;;10.77;;
69047;SDS011;56119;50.118;8.642;2023-03-02T14:58:12;16.42;;;11.18;;
69047;SDS011;56119;50.118;8.642;2023-03-02T15:00:40;16.20;;;10.35;;
69047;SDS011;56119;50.118;8.642;2023-03-02T15:03:06;18.45;;;11.18;;
69047;SDS011;56119;50.118;8.642;2023-03-02T15:05:32;18.77;;;11.48;;
69047;SDS011;56119;50.118;8.642;2023-03-02T15:07:58;18.52;;;11.45;;
69047;SDS011;56119;50.118;8.642;2023-03-02T15:10:24;16.30;;;11.20;;
69047;SDS011;56119;50.118;8.642;2023-03-02T15:12:50;17.13;;;11.27;;
69047;SDS011;56119;50.118;8.642;2023-03-02T15:15:16;15.07;;;10.35;;
69047;SDS011;56119;50.118;8.642;2023-03-02T15:17:42;16.88;;;11.75;;
69047;SDS011;56119;50.118;8.642;2023-03-02T15:20:12;17.85;;;11.75;;
69047;SDS011;56119;50.118;8.642;2023-03-02T15:22:39;16.95;;;11.18;;
69047;SDS011;56119;50.118;8.642;2023-03-02T15:25:05;17.08;;;11.00;;
69047;SDS011;56119;50.118;8.642;2023-03-02T15:27:31;18.48;;;11.30;;
69047;SDS011;56119;50.118;8.642;2023-03-02T15:29:57;18.10;;;11.88;;